Time;durP1;ratioP1;P1;durP2;ratioP2;P2;SDS_P1;SDS_P2;PMS_P1;PMS_P2;Temp;Humidity;BMP_temperature;BMP_pressure;BME280_temperature;BME280_humidity;BME280_pressure;Samples;Min_cycle;Max_cycle;Signal;HPM_P1;HPM_P2
2022/02/15 00:00:55;;;;;;;;;3.33;3.33;;;;;11.32;59.34;100551.75;2072759;28;47864;-59
2022/02/15 00:01:56;;;;;;;;;2.00;2.00;;;;;11.32;59.33;100541.13;2072637;28;47148;-58
2022/02/15 00:02:56;;;;;;;;;5.25;4.75;;;;;11.32;59.23;100547.31;2072905;28;47937;-58
2022/02/15 00:03:56;;;;;;;;;5.00;4.00;;;;;11.32;59.15;100552.63;2072387;28;47968;-59
2022/02/15 00:04:57;;;;;;;;;3.33;3.00;;;;;11.33;59.37;100548.19;2072378;28;47107;-61
2022/02/15 00:05:58;;;;;;;;;4.00;4.00;;;;;11.31;59.12;100548.22;2072261;28;48292;-58
2022/02/15 00:06:58;;;;;;;;;4.00;4.00;;;;;11.31;59.04;100550.00;2072086;28;45973;-59
2022/02/15 00:08:00;;;;;;;;;3.00;3.00;;;;;11.31;59.31;100544.69;2072153;28;47262;-58
2022/02/15 00:09:02;;;;;;;;;3.25;3.00;;;;;11.31;59.25;100548.22;2072307;28;48127;-59
2022/02/15 00:10:04;;;;;;;;;4.50;3.50;;;;;11.31;59.58;100550.88;2072462;28;48238;-57
2022/02/15 00:11:04;;;;;;;;;3.25;3.25;;;;;11.30;59.22;100551.78;2063044;28;47680;-57
2022/02/15 00:12:05;;;;;;;;;2.00;2.00;;;;;11.32;59.39;100549.09;2063081;28;47212;-59
2022/02/15 00:13:06;;;;;;;;;3.00;3.00;;;;;11.31;59.35;100552.66;2070941;28;47173;-57
2022/02/15 00:14:07;;;;;;;;;3.67;3.33;;;;;11.31;59.45;100558.84;2071066;28;47958;-58
2022/02/15 00:15:10;;;;;;;;;3.25;3.25;;;;;11.30;59.24;100551.78;2062821;28;48075;-61
2022/02/15 00:16:10;;;;;;;;;3.50;3.50;;;;;11.30;59.42;100557.09;2063417;28;47665;-57
2022/02/15 00:17:11;;;;;;;;;3.67;3.67;;;;;11.30;59.32;100557.09;2072327;28;47671;-58
2022/02/15 00:18:11;;;;;;;;;3.00;3.00;;;;;11.29;59.10;100550.03;2071991;28;47969;-59
2022/02/15 00:19:12;;;;;;;;;5.67;4.67;;;;;11.31;59.38;100550.00;2072097;28;47331;-59
2022/02/15 00:20:12;;;;;;;;;4.00;4.00;;;;;11.32;59.26;100555.28;2072087;28;47420;-60
2022/02/15 00:21:13;;;;;;;;;2.33;2.33;;;;;11.31;59.48;100550.88;2072227;28;47337;-59
2022/02/15 00:22:14;;;;;;;;;4.00;4.00;;;;;11.31;59.34;100548.22;2072259;28;47946;-60
2022/02/15 00:23:15;;;;;;;;;4.25;4.25;;;;;11.31;59.19;100561.50;2071899;28;47710;-58
2022/02/15 00:24:15;;;;;;;;;4.00;4.00;;;;;11.29;59.34;100558.00;2072280;28;47308;-56
2022/02/15 00:25:16;;;;;;;;;3.00;3.00;;;;;11.30;59.38;100553.56;2072799;28;47449;-58
2022/02/15 00:26:17;;;;;;;;;4.00;4.00;;;;;11.29;59.24;100558.00;2072018;28;47419;-59
2022/02/15 00:27:17;;;;;;;;;3.67;2.33;;;;;11.29;59.51;100565.97;2070459;28;47605;-57
2022/02/15 00:28:18;;;;;;;;;5.00;5.00;;;;;11.29;59.29;100559.78;2071887;28;47964;-58
2022/02/15 00:29:18;;;;;;;;;4.00;4.00;;;;;11.28;59.38;100566.88;2071512;28;48339;-58
2022/02/15 00:30:19;;;;;;;;;3.33;3.33;;;;;11.27;59.51;100562.47;2072385;28;47463;-60
2022/02/15 00:31:19;;;;;;;;;3.00;2.67;;;;;11.27;59.66;100570.44;2072172;28;47733;-59
2022/02/15 00:32:20;;;;;;;;;3.00;3.00;;;;;11.27;59.30;100562.47;2071924;28;48184;-59
2022/02/15 00:33:21;;;;;;;;;2.67;2.67;;;;;11.27;59.57;100562.47;2072718;28;47740;-57
2022/02/15 00:34:21;;;;;;;;;3.67;3.67;;;;;11.26;59.47;100566.06;2071934;28;47206;-59
2022/02/15 00:35:21;;;;;;;;;3.00;3.00;;;;;11.27;59.35;100565.13;2072165;28;47836;-58
2022/02/15 00:36:22;;;;;;;;;3.00;2.00;;;;;11.27;59.37;100572.25;2072198;28;47787;-58
2022/02/15 00:37:23;;;;;;;;;3.75;2.00;;;;;11.27;59.20;100570.44;2072488;28;47197;-58
2022/02/15 00:38:25;;;;;;;;;4.67;4.00;;;;;11.27;59.41;100573.13;2072251;28;47593;-59
2022/02/15 00:39:26;;;;;;;;;3.00;3.00;;;;;11.28;59.44;100574.84;2072234;28;47634;-58
2022/02/15 00:40:26;;;;;;;;;4.00;3.67;;;;;11.28;59.20;100572.19;2072143;28;47452;-58
2022/02/15 00:41:27;;;;;;;;;4.33;3.67;;;;;11.28;59.25;100573.97;2072015;28;47362;-59
2022/02/15 00:42:27;;;;;;;;;2.67;2.67;;;;;11.28;59.71;100571.31;2072390;28;47644;-59
2022/02/15 00:43:27;;;;;;;;;6.67;4.67;;;;;11.27;59.40;100575.78;2062682;28;47240;-57
2022/02/15 00:44:31;;;;;;;;;3.00;2.33;;;;;11.27;59.39;100581.09;2063115;28;47485;-57
2022/02/15 00:45:31;;;;;;;;;3.75;3.75;;;;;11.26;59.48;100578.47;2072226;28;48238;-57
2022/02/15 00:46:32;;;;;;;;;2.00;2.00;;;;;11.24;59.47;100581.16;2072180;28;47878;-58
2022/02/15 00:47:33;;;;;;;;;2.00;2.00;;;;;11.25;59.25;100579.38;2072530;28;47727;-58
2022/02/15 00:48:34;;;;;;;;;4.00;3.00;;;;;11.23;59.39;100579.44;2072174;28;47427;-58
2022/02/15 00:49:34;;;;;;;;;3.50;3.50;;;;;11.22;59.23;100588.31;2072080;28;47651;-60
2022/02/15 00:50:35;;;;;;;;;3.00;3.00;;;;;11.22;59.13;100585.66;2072153;28;47157;-58
2022/02/15 00:51:35;;;;;;;;;3.33;3.00;;;;;11.22;59.58;100580.34;2071859;28;47430;-57
2022/02/15 00:52:35;;;;;;;;;3.33;3.33;;;;;11.21;59.53;100586.56;2072527;28;47942;-58
2022/02/15 00:53:36;;;;;;;;;2.67;2.67;;;;;11.23;59.26;100586.53;2071906;28;47621;-58
2022/02/15 00:54:37;;;;;;;;;3.00;3.00;;;;;11.22;59.42;100590.09;2072117;28;47789;-58
2022/02/15 00:55:37;;;;;;;;;2.25;2.25;;;;;11.20;59.25;100591.00;2071549;28;47247;-58
2022/02/15 00:56:38;;;;;;;;;3.00;2.33;;;;;11.19;59.36;100583.97;2071246;28;47626;-59
2022/02/15 00:57:39;;;;;;;;;5.00;5.00;;;;;11.19;59.54;100588.41;2071919;28;48157;-57
2022/02/15 00:58:40;;;;;;;;;2.75;2.50;;;;;11.20;59.46;100598.09;2071974;28;46915;-58
2022/02/15 00:59:41;;;;;;;;;3.00;3.00;;;;;11.20;59.47;100601.63;2071869;28;47841;-56
2022/02/15 01:00:41;;;;;;;;;3.33;3.33;;;;;11.19;59.46;100597.25;2071742;28;47432;-59
2022/02/15 01:01:42;;;;;;;;;4.00;3.00;;;;;11.20;59.50;100603.44;2071636;28;47673;-58
2022/02/15 01:02:44;;;;;;;;;4.33;4.33;;;;;11.20;59.42;100604.28;2072193;28;47321;-58
2022/02/15 01:03:45;;;;;;;;;2.00;2.00;;;;;11.20;59.69;100603.44;2072324;28;48065;-59
2022/02/15 01:04:45;;;;;;;;;4.00;3.00;;;;;11.19;59.55;100596.38;2071591;28;47631;-58
2022/02/15 01:05:46;;;;;;;;;5.00;4.00;;;;;11.19;59.64;100604.34;2071909;28;47739;-59
2022/02/15 01:06:46;;;;;;;;;6.00;5.00;;;;;11.18;59.48;100608.78;2072158;28;47625;-57
2022/02/15 01:07:46;;;;;;;;;2.00;2.00;;;;;11.17;59.34;100599.03;2062643;28;47794;-57
2022/02/15 01:08:47;;;;;;;;;4.00;4.00;;;;;11.18;59.51;100607.91;2062770;28;47979;-59
2022/02/15 01:09:47;;;;;;;;;3.00;3.00;;;;;11.19;59.42;100617.63;2071595;28;47711;-58
2022/02/15 01:10:48;;;;;;;;;3.00;3.00;;;;;11.17;59.39;100607.00;2071775;28;47914;-57
2022/02/15 01:11:49;;;;;;;;;4.00;4.00;;;;;11.16;59.61;100605.25;2071944;28;47756;-58
2022/02/15 01:12:50;;;;;;;;;3.25;3.25;;;;;11.17;59.56;100606.13;2071695;28;47455;-60
2022/02/15 01:13:50;;;;;;;;;3.00;3.00;;;;;11.17;59.55;100612.31;2070600;28;47920;-55
2022/02/15 01:14:51;;;;;;;;;3.67;3.67;;;;;11.17;59.74;100614.97;2070948;28;47850;-59
2022/02/15 01:15:52;;;;;;;;;3.75;3.75;;;;;11.17;59.75;100614.09;2071883;28;47490;-60
2022/02/15 01:16:52;;;;;;;;;3.00;3.00;;;;;11.17;59.70;100611.44;2072173;28;47281;-59
2022/02/15 01:17:53;;;;;;;;;3.00;3.00;;;;;11.17;59.93;100611.44;2072284;28;47695;-59
2022/02/15 01:18:53;;;;;;;;;1.00;1.00;;;;;11.17;59.55;100608.78;2071816;28;47749;-58
2022/02/15 01:19:54;;;;;;;;;2.67;2.67;;;;;11.18;59.55;100616.75;2071888;28;48132;-59
2022/02/15 01:20:54;;;;;;;;;2.33;2.33;;;;;11.17;59.73;100611.44;2071817;28;47659;-59
2022/02/15 01:21:55;;;;;;;;;3.00;3.00;;;;;11.17;59.69;100614.09;2071832;28;47507;-58
2022/02/15 01:22:55;;;;;;;;;4.33;4.33;;;;;11.16;59.68;100615.88;2071183;28;47469;-56
2022/02/15 01:23:56;;;;;;;;;3.33;3.00;;;;;11.16;59.64;100623.84;2070055;28;47272;-58
2022/02/15 01:24:56;;;;;;;;;3.00;3.00;;;;;11.16;59.70;100618.53;2071657;28;48026;-59
2022/02/15 01:25:57;;;;;;;;;4.33;3.33;;;;;11.17;59.93;100619.41;2071782;28;47532;-58
2022/02/15 01:26:57;;;;;;;;;4.67;3.00;;;;;11.18;59.82;100621.19;2072054;28;47430;-59
2022/02/15 01:27:58;;;;;;;;;3.00;3.00;;;;;11.16;59.61;100618.53;2072224;28;47936;-59
2022/02/15 01:28:59;;;;;;;;;5.00;4.00;;;;;11.16;59.94;100626.50;2070306;28;45769;-58
2022/02/15 01:29:59;;;;;;;;;4.00;3.00;;;;;11.16;59.90;100615.88;2070715;28;47811;-59
2022/02/15 01:31:00;;;;;;;;;4.00;4.00;;;;;11.16;59.89;100620.31;2054237;28;47301;-58
2022/02/15 01:32:00;;;;;;;;;2.33;2.00;;;;;11.16;59.87;100621.19;2054415;28;48295;-58
2022/02/15 01:33:00;;;;;;;;;2.00;2.00;;;;;11.17;59.94;100630.03;2063917;28;47739;-57
2022/02/15 01:34:01;;;;;;;;;2.00;2.00;;;;;11.16;59.68;100626.50;2071178;28;47583;-59
2022/02/15 01:35:01;;;;;;;;;3.00;3.00;;;;;11.16;60.22;100620.31;2070955;28;47333;-58
2022/02/15 01:36:02;;;;;;;;;3.67;3.67;;;;;11.17;60.00;100624.72;2070874;28;48064;-58
2022/02/15 01:37:03;;;;;;;;;3.00;3.00;;;;;11.16;59.78;100637.13;2070950;28;48006;-59
2022/02/15 01:38:04;;;;;;;;;2.00;2.00;;;;;11.16;59.67;100633.59;2070834;28;47644;-56
2022/02/15 01:39:04;;;;;;;;;2.00;2.00;;;;;11.15;59.81;100631.88;2070976;28;48024;-57
2022/02/15 01:40:06;;;;;;;;;5.00;3.00;;;;;11.13;59.68;100629.25;2070640;28;47814;-58
2022/02/15 01:41:08;;;;;;;;;2.25;2.25;;;;;11.13;59.99;100634.56;2070014;28;47836;-59
2022/02/15 01:42:09;;;;;;;;;3.50;3.50;;;;;11.13;59.96;100639.00;2071482;28;48325;-60
2022/02/15 01:43:09;;;;;;;;;4.00;3.00;;;;;11.14;59.95;100640.75;2070574;28;47609;-58
2022/02/15 01:44:10;;;;;;;;;2.33;2.33;;;;;11.13;59.84;100639.88;2070845;28;47918;-59
2022/02/15 01:45:12;;;;;;;;;4.33;3.67;;;;;11.14;59.57;100644.28;2070849;28;47580;-58
2022/02/15 01:46:14;;;;;;;;;3.00;3.00;;;;;11.14;59.87;100641.63;2071049;28;47427;-57
2022/02/15 01:47:25;;;;;;;;;3.25;3.25;;;;;11.14;59.94;100641.63;2070806;28;48100;-58
2022/02/15 01:48:25;;;;;;;;;2.75;2.00;;;;;11.14;59.66;100636.31;2071020;28;47618;-58
2022/02/15 01:49:26;;;;;;;;;3.33;3.33;;;;;11.14;59.77;100646.94;2070770;28;47587;-58
2022/02/15 01:50:26;;;;;;;;;2.00;1.00;;;;;11.13;59.60;100645.19;2070831;28;48145;-57
2022/02/15 01:51:27;;;;;;;;;2.67;2.00;;;;;11.12;59.91;100646.09;2070476;28;47712;-57
2022/02/15 01:52:28;;;;;;;;;2.50;2.50;;;;;11.13;59.76;100647.84;2070695;28;48261;-59
2022/02/15 01:53:28;;;;;;;;;2.00;2.00;;;;;11.12;59.89;100648.75;2070738;28;47589;-57
2022/02/15 01:54:29;;;;;;;;;3.00;1.00;;;;;11.12;59.93;100646.09;2070648;28;47789;-58
2022/02/15 01:55:30;;;;;;;;;3.00;3.00;;;;;11.12;59.80;100645.22;2070472;28;47397;-59
2022/02/15 01:56:31;;;;;;;;;3.33;3.33;;;;;11.12;59.96;100653.19;2070790;28;47394;-59
2022/02/15 01:57:32;;;;;;;;;3.75;3.75;;;;;11.12;59.72;100646.09;2071103;28;47441;-56
2022/02/15 01:58:33;;;;;;;;;3.00;3.00;;;;;11.11;59.79;100646.16;2071187;28;47306;-59
2022/02/15 01:59:33;;;;;;;;;2.00;2.00;;;;;11.12;59.81;100650.53;2070899;28;47637;-59
2022/02/15 02:00:34;;;;;;;;;4.67;2.67;;;;;11.10;59.73;100661.22;2070949;28;47838;-58
2022/02/15 02:01:34;;;;;;;;;3.67;2.00;;;;;11.09;59.81;100653.28;2071771;28;47138;-56
2022/02/15 02:02:35;;;;;;;;;3.67;3.67;;;;;11.08;59.70;100655.06;2071848;28;48175;-58
2022/02/15 02:03:35;;;;;;;;;4.00;1.67;;;;;11.07;59.65;100663.94;2071473;28;47238;-58
2022/02/15 02:05:55;;;;;;;;;2.00;2.00;;;;;11.07;59.97;100661.28;2071676;28;47879;-59
2022/02/15 02:06:56;;;;;;;;;4.00;3.00;;;;;11.08;59.92;100670.13;2071439;28;47719;-59
2022/02/15 02:07:57;;;;;;;;;1.33;1.33;;;;;11.07;59.96;100663.06;2054936;28;47329;-58
2022/02/15 02:09:00;;;;;;;;;3.00;3.00;;;;;11.06;59.72;100667.53;2054693;28;47495;-58
2022/02/15 02:10:01;;;;;;;;;1.75;1.00;;;;;11.06;59.71;100675.47;2071679;28;47837;-59
2022/02/15 02:11:03;;;;;;;;;2.75;2.25;;;;;11.05;59.69;100673.75;2071316;28;47678;-58
2022/02/15 02:12:05;;;;;;;;;4.25;3.00;;;;;11.06;59.84;100667.53;2062690;28;47623;-59
2022/02/15 02:13:05;;;;;;;;;2.25;1.75;;;;;11.05;59.76;100671.09;2063155;28;47999;-59
2022/02/15 02:14:05;;;;;;;;;1.00;1.00;;;;;11.06;59.94;100674.63;2071486;28;47085;-59
2022/02/15 02:15:09;;;;;;;;;3.00;3.00;;;;;11.06;59.94;100677.25;2062637;28;48929;-59
2022/02/15 02:16:09;;;;;;;;;2.75;2.75;;;;;11.06;59.99;100685.22;2063582;28;47941;-58
2022/02/15 02:17:10;;;;;;;;;3.00;3.00;;;;;11.06;59.99;100682.56;2071526;28;48145;-59
2022/02/15 02:18:11;;;;;;;;;2.33;2.33;;;;;11.07;60.22;100681.66;2071736;28;47520;-59
2022/02/15 02:19:11;;;;;;;;;2.00;2.00;;;;;11.08;60.09;100683.41;2071414;28;47452;-57
2022/02/15 02:20:14;;;;;;;;;2.33;2.33;;;;;11.07;60.05;100685.19;2070691;28;48186;-58
2022/02/15 02:21:15;;;;;;;;;3.00;3.00;;;;;11.07;59.96;100681.66;2062948;28;47507;-59
2022/02/15 02:22:15;;;;;;;;;3.67;3.00;;;;;11.05;60.03;100681.72;2062861;28;48354;-58
2022/02/15 02:23:19;;;;;;;;;3.33;3.00;;;;;11.05;59.69;100686.13;2071460;28;48093;-57
2022/02/15 02:24:19;;;;;;;;;2.00;2.00;;;;;11.05;60.09;100691.44;2053854;28;47899;-58
2022/02/15 02:25:21;;;;;;;;;3.33;3.33;;;;;11.03;59.96;100687.94;2054389;28;48100;-59
2022/02/15 02:26:22;;;;;;;;;2.75;2.75;;;;;11.03;59.93;100695.91;2071602;28;47766;-57
2022/02/15 02:27:31;;;;;;;;;2.00;2.00;;;;;11.02;60.15;100686.19;2071490;28;47307;-56
2022/02/15 02:28:32;;;;;;;;;2.75;1.75;;;;;11.03;60.18;100698.56;2069944;28;47405;-59
2022/02/15 02:29:32;;;;;;;;;2.67;2.00;;;;;11.02;60.13;100695.03;2063506;28;47684;-59
2022/02/15 02:30:32;;;;;;;;;2.00;2.00;;;;;11.03;60.04;100679.97;2071613;28;47914;-57
2022/02/15 02:31:33;;;;;;;;;3.00;2.00;;;;;11.02;59.81;100688.84;2071287;28;46654;-59
2022/02/15 02:32:34;;;;;;;;;3.00;3.00;;;;;11.02;60.12;100688.84;2071494;28;47490;-57
2022/02/15 02:33:34;;;;;;;;;2.50;2.50;;;;;11.03;60.10;100690.59;2071609;28;47579;-58
2022/02/15 02:34:35;;;;;;;;;2.67;2.67;;;;;11.01;59.91;100687.09;2071330;28;47915;-58
2022/02/15 02:35:35;;;;;;;;;2.67;2.67;;;;;10.99;59.95;100692.47;2071522;28;48004;-57
2022/02/15 02:36:46;;;;;;;;;3.00;2.00;;;;;10.99;60.13;100692.47;2071084;28;47517;-58
2022/02/15 02:37:48;;;;;;;;;1.50;1.50;;;;;10.99;60.01;100694.25;2071970;28;45714;-59
2022/02/15 02:38:49;;;;;;;;;4.75;3.25;;;;;10.99;60.03;100692.47;2071680;28;47609;-57
2022/02/15 02:39:51;;;;;;;;;2.00;2.00;;;;;10.98;60.17;100696.03;2071135;28;47637;-58
2022/02/15 02:40:52;;;;;;;;;3.00;2.75;;;;;10.98;60.00;100697.81;2071455;28;47890;-57
2022/02/15 02:41:52;;;;;;;;;1.67;1.67;;;;;10.98;59.95;100697.81;2071327;28;47593;-58
2022/02/15 02:42:52;;;;;;;;;5.00;3.00;;;;;11.00;60.14;100703.94;2071586;28;47549;-57
2022/02/15 02:43:53;;;;;;;;;1.00;1.00;;;;;11.00;59.97;100703.94;2071625;28;47076;-59
2022/02/15 02:45:04;;;;;;;;;3.00;2.00;;;;;11.00;59.84;100702.16;2071571;28;47932;-59
2022/02/15 02:46:04;;;;;;;;;1.00;1.00;;;;;11.00;59.85;100709.25;2071281;28;47959;-59
2022/02/15 02:47:06;;;;;;;;;1.67;1.33;;;;;10.99;59.86;100704.88;2062384;28;47555;-59
2022/02/15 02:48:06;;;;;;;;;1.00;1.00;;;;;10.99;59.97;100704.88;2062251;28;47955;-59
2022/02/15 02:49:07;;;;;;;;;1.67;1.67;;;;;10.98;60.12;100701.34;2071644;28;47832;-58
2022/02/15 02:50:08;;;;;;;;;1.67;1.67;;;;;10.98;59.99;100711.09;2071499;28;47957;-58
2022/02/15 02:51:08;;;;;;;;;3.00;3.00;;;;;10.98;59.94;100711.97;2071554;28;45564;-58
2022/02/15 02:52:09;;;;;;;;;2.00;2.00;;;;;10.97;60.16;100704.03;2071197;28;47724;-58
2022/02/15 02:53:10;;;;;;;;;2.00;2.00;;;;;10.99;60.01;100707.53;2071408;28;47204;-57
2022/02/15 02:54:11;;;;;;;;;1.00;1.00;;;;;10.98;59.84;100711.09;2071258;28;47795;-57
2022/02/15 02:55:12;;;;;;;;;4.00;3.00;;;;;10.97;59.74;100706.69;2071167;28;47815;-59
2022/02/15 02:56:12;;;;;;;;;1.25;1.25;;;;;10.97;59.91;100707.56;2071316;28;47260;-59
2022/02/15 02:57:13;;;;;;;;;0.33;0.33;;;;;10.96;59.87;100708.47;2071196;28;48064;-58
2022/02/15 02:58:13;;;;;;;;;0.33;0.33;;;;;10.96;59.77;100719.09;2071508;28;47983;-59
2022/02/15 02:59:14;;;;;;;;;1.33;1.33;;;;;10.96;59.90;100712.91;2071538;28;47779;-57
2022/02/15 03:00:16;;;;;;;;;1.00;1.00;;;;;10.96;60.08;100719.09;2071340;28;47575;-59
2022/02/15 03:01:17;;;;;;;;;2.00;2.00;;;;;10.96;60.03;100719.09;2071718;28;47642;-59
2022/02/15 03:02:17;;;;;;;;;2.67;1.67;;;;;10.97;59.63;100720.84;2071236;28;47417;-59
2022/02/15 03:03:18;;;;;;;;;2.00;2.00;;;;;10.98;59.72;100713.75;2071595;28;47954;-58
2022/02/15 03:04:18;;;;;;;;;2.00;2.00;;;;;10.97;59.95;100717.31;2071147;28;47737;-59
2022/02/15 03:05:19;;;;;;;;;2.00;1.00;;;;;10.97;59.81;100720.84;2071321;28;47432;-57
2022/02/15 03:06:21;;;;;;;;;1.00;1.00;;;;;10.97;59.94;100723.50;2071255;28;48131;-59
2022/02/15 03:07:22;;;;;;;;;3.50;2.00;;;;;10.97;59.75;100720.84;2070317;28;47742;-59
2022/02/15 03:08:22;;;;;;;;;3.33;2.67;;;;;10.98;60.04;100729.66;2069923;28;47859;-58
2022/02/15 03:09:22;;;;;;;;;3.33;2.00;;;;;10.97;60.03;100730.59;2071067;28;47834;-58
2022/02/15 03:10:23;;;;;;;;;1.33;1.33;;;;;10.96;59.93;100727.06;2071468;28;47416;-59
2022/02/15 03:11:23;;;;;;;;;1.00;1.00;;;;;10.96;59.75;100731.50;2071279;28;47725;-59
2022/02/15 03:12:24;;;;;;;;;2.00;2.00;;;;;10.95;59.76;100732.41;2071111;28;47806;-58
2022/02/15 03:13:25;;;;;;;;;2.33;2.33;;;;;10.96;60.04;100734.16;2071448;28;47236;-57
2022/02/15 03:14:25;;;;;;;;;4.00;3.00;;;;;10.96;59.52;100736.81;2061961;28;47293;-58
2022/02/15 03:15:26;;;;;;;;;1.00;1.00;;;;;10.96;59.69;100740.34;2062255;28;47491;-58
2022/02/15 03:16:27;;;;;;;;;3.00;2.00;;;;;10.96;59.83;100750.09;2071279;28;46318;-58
2022/02/15 03:17:27;;;;;;;;;2.00;2.00;;;;;10.96;59.75;100756.25;2071127;28;47439;-59
2022/02/15 03:18:28;;;;;;;;;1.00;1.00;;;;;10.95;59.46;100745.69;2071557;28;47424;-59
2022/02/15 03:19:28;;;;;;;;;2.00;2.00;;;;;10.94;59.75;100749.25;2071132;28;47579;-57
2022/02/15 03:20:29;;;;;;;;;1.33;1.00;;;;;10.94;59.89;100757.22;2071196;28;47255;-58
2022/02/15 03:21:29;;;;;;;;;1.67;1.67;;;;;10.93;59.79;100755.47;2071157;28;47387;-58
2022/02/15 03:22:30;;;;;;;;;2.67;2.67;;;;;10.93;59.67;100748.38;2071624;28;47705;-59
2022/02/15 03:23:30;;;;;;;;;2.00;2.00;;;;;10.93;59.94;100752.81;2071230;28;47602;-59
2022/02/15 03:24:33;;;;;;;;;2.33;2.33;;;;;10.94;59.89;100759.88;2058463;28;48220;-57
2022/02/15 03:25:33;;;;;;;;;2.00;2.00;;;;;10.93;59.83;100759.00;2059548;28;48176;-58
2022/02/15 03:26:34;;;;;;;;;1.00;1.00;;;;;10.93;59.75;100759.00;2070907;28;47727;-57
2022/02/15 03:27:34;;;;;;;;;2.00;2.00;;;;;10.92;59.70;100759.88;2071072;28;47693;-59
2022/02/15 03:28:35;;;;;;;;;1.00;1.00;;;;;10.91;59.61;100766.97;2071241;28;47100;-58
2022/02/15 03:29:36;;;;;;;;;1.50;1.50;;;;;10.90;59.72;100769.66;2070564;28;47665;-59
2022/02/15 03:30:36;;;;;;;;;2.33;1.33;;;;;10.90;59.67;100759.03;2070536;28;46816;-59
2022/02/15 03:31:38;;;;;;;;;3.33;2.00;;;;;10.90;59.62;100770.53;2071338;28;47050;-56
2022/02/15 03:32:42;;;;;;;;;2.25;1.25;;;;;10.91;59.81;100782.03;2070888;28;47896;-59
2022/02/15 03:33:42;;;;;;;;;2.25;2.25;;;;;10.89;59.80;100771.44;2071340;28;47741;-59
2022/02/15 03:34:43;;;;;;;;;1.33;1.00;;;;;10.89;59.57;100782.06;2071465;28;47194;-58
2022/02/15 03:35:43;;;;;;;;;1.33;1.33;;;;;10.90;59.76;100777.63;2071311;28;47315;-59
2022/02/15 03:36:44;;;;;;;;;2.33;2.00;;;;;10.90;59.71;100788.25;2071283;28;47797;-59
2022/02/15 03:37:45;;;;;;;;;1.25;1.00;;;;;10.90;59.54;100782.94;2070883;28;47342;-58
2022/02/15 03:38:45;;;;;;;;;1.67;1.33;;;;;10.90;59.59;100781.16;2071263;28;47921;-58
2022/02/15 03:39:46;;;;;;;;;1.00;1.00;;;;;10.89;59.62;100781.19;2070984;28;47797;-58
2022/02/15 03:43:25;;;;;;;;;1.00;1.00;;;;;10.88;59.78;100792.72;2070864;28;47296;-57
2022/02/15 03:44:25;;;;;;;;;2.00;1.00;;;;;10.88;59.63;100800.69;2071464;28;48437;-57
2022/02/15 03:45:26;;;;;;;;;2.33;1.67;;;;;10.88;59.67;100803.34;2070911;28;48046;-56
2022/02/15 03:46:26;;;;;;;;;1.00;1.00;;;;;10.87;59.93;100793.63;2071437;28;47674;-59
2022/02/15 03:47:26;;;;;;;;;2.33;1.33;;;;;10.86;59.79;100789.22;2071120;28;47537;-57
2022/02/15 03:48:27;;;;;;;;;1.67;1.67;;;;;10.85;59.72;100803.41;2070810;28;47546;-56
2022/02/15 03:49:27;;;;;;;;;3.00;2.33;;;;;10.83;59.90;100797.28;2071359;28;46694;-57
2022/02/15 03:50:28;;;;;;;;;2.00;2.00;;;;;10.83;59.87;100805.22;2070900;28;47761;-58
2022/02/15 03:51:28;;;;;;;;;4.00;3.00;;;;;10.83;59.56;100813.19;2071250;28;47539;-59
2022/02/15 03:52:28;;;;;;;;;3.00;2.00;;;;;10.83;59.67;100810.53;2071044;28;47844;-59
2022/02/15 03:53:29;;;;;;;;;2.00;2.00;;;;;10.82;59.88;100812.31;2071184;28;47801;-59
2022/02/15 03:54:29;;;;;;;;;3.00;1.00;;;;;10.83;59.82;100805.22;2070729;28;47646;-57
2022/02/15 03:55:30;;;;;;;;;1.00;1.00;;;;;10.83;59.65;100813.19;2071156;28;47427;-57
2022/02/15 03:56:30;;;;;;;;;1.67;1.67;;;;;10.80;59.83;100808.84;2070929;28;47581;-58
2022/02/15 03:57:35;;;;;;;;;2.00;2.00;;;;;10.82;59.72;100819.41;2071425;28;47705;-59
2022/02/15 03:58:36;;;;;;;;;3.25;1.50;;;;;10.81;59.71;100820.31;2071314;28;46185;-59
2022/02/15 03:59:36;;;;;;;;;3.25;1.25;;;;;10.80;59.66;100824.75;2071056;28;47965;-58
2022/02/15 04:00:38;;;;;;;;;1.67;1.67;;;;;10.81;59.77;100826.50;2071024;28;47246;-59
2022/02/15 04:01:38;;;;;;;;;2.25;2.25;;;;;10.80;59.67;100824.75;2068232;28;47674;-58
2022/02/15 04:02:39;;;;;;;;;1.00;1.00;;;;;10.81;60.12;100826.50;2069509;28;48100;-57
2022/02/15 04:03:39;;;;;;;;;3.00;1.33;;;;;10.81;59.67;100825.63;2071048;28;47510;-58
2022/02/15 04:04:40;;;;;;;;;2.00;2.00;;;;;10.82;59.83;100827.38;2072318;28;47843;-56
2022/02/15 04:05:40;;;;;;;;;2.00;1.00;;;;;10.82;59.46;100822.06;2072721;28;47569;-58
2022/02/15 04:06:43;;;;;;;;;1.00;1.00;;;;;10.80;59.49;100834.50;2063045;28;47384;-59
2022/02/15 04:07:43;;;;;;;;;2.25;2.25;;;;;10.79;59.42;100830.06;2063403;28;48191;-59
2022/02/15 04:08:44;;;;;;;;;0.33;0.33;;;;;10.79;59.39;100830.06;2072412;28;47569;-59
2022/02/15 04:09:44;;;;;;;;;1.00;1.00;;;;;10.79;59.28;100830.06;2072263;28;48051;-59
2022/02/15 04:10:45;;;;;;;;;3.33;2.00;;;;;10.78;59.37;100826.53;2072633;28;47361;-58
2022/02/15 04:11:45;;;;;;;;;1.00;1.00;;;;;10.77;59.21;100831.88;2072420;28;48049;-58
2022/02/15 04:12:46;;;;;;;;;2.33;2.00;;;;;10.78;59.38;100826.53;2072392;28;47429;-58
2022/02/15 04:13:46;;;;;;;;;2.00;1.00;;;;;10.77;59.47;100826.59;2072463;28;47669;-60
2022/02/15 04:14:48;;;;;;;;;1.67;1.00;;;;;10.78;59.26;100830.97;2072421;28;47206;-58
2022/02/15 04:15:49;;;;;;;;;1.00;1.00;;;;;10.76;59.36;100833.66;2072387;28;47655;-59
2022/02/15 04:16:49;;;;;;;;;3.00;2.00;;;;;10.77;59.23;100845.16;2072495;28;47753;-59
2022/02/15 04:17:50;;;;;;;;;1.00;1.00;;;;;10.76;59.42;100844.28;2072433;28;46605;-57
2022/02/15 04:18:50;;;;;;;;;1.00;1.00;;;;;10.76;59.19;100851.38;2072013;28;47331;-58
2022/02/15 04:19:51;;;;;;;;;3.00;3.00;;;;;10.74;59.37;100848.75;2072259;28;47710;-60
2022/02/15 04:20:51;;;;;;;;;2.00;0.67;;;;;10.73;59.32;100851.44;2072247;28;46974;-58
2022/02/15 04:21:52;;;;;;;;;1.67;1.00;;;;;10.73;59.24;100857.63;2062911;28;47295;-58
2022/02/15 04:22:52;;;;;;;;;1.33;1.33;;;;;10.73;59.34;100854.97;2063078;28;48197;-59
2022/02/15 04:23:52;;;;;;;;;3.00;3.00;;;;;10.72;59.29;100858.53;2072054;28;47440;-57
2022/02/15 04:24:53;;;;;;;;;1.33;1.33;;;;;10.74;59.32;100855.84;2071612;28;47673;-56
2022/02/15 04:25:53;;;;;;;;;3.67;1.33;;;;;10.73;59.27;100860.28;2071315;28;46142;-60
2022/02/15 04:26:54;;;;;;;;;1.67;1.67;;;;;10.74;59.39;100863.81;2079359;28;47208;-59
2022/02/15 04:27:54;;;;;;;;;2.00;1.00;;;;;10.75;59.12;100865.56;2079789;28;48154;-57
2022/02/15 04:28:54;;;;;;;;;5.00;3.00;;;;;10.74;59.31;100871.78;2079696;28;47591;-59
2022/02/15 04:29:57;;;;;;;;;3.25;0.75;;;;;10.73;59.15;100868.25;2074634;28;48088;-58
2022/02/15 04:30:57;;;;;;;;;0.75;0.75;;;;;10.73;59.01;100878.00;2073896;28;48079;-59
2022/02/15 04:31:57;;;;;;;;;0.67;0.67;;;;;10.72;59.41;100879.78;2079641;28;47187;-58
2022/02/15 04:32:58;;;;;;;;;2.00;1.00;;;;;10.73;59.38;100878.00;2079423;28;47194;-59
2022/02/15 04:33:58;;;;;;;;;1.00;1.00;;;;;10.72;59.08;100885.09;2079551;28;47539;-56
2022/02/15 04:34:59;;;;;;;;;0.00;0.00;;;;;10.72;59.29;100885.09;2079400;28;47759;-60
2022/02/15 04:35:59;;;;;;;;;1.00;1.00;;;;;10.72;59.05;100884.22;2079246;28;48134;-59
2022/02/15 04:37:00;;;;;;;;;2.00;0.67;;;;;10.70;58.98;100884.25;2079493;28;47606;-58
2022/02/15 04:38:01;;;;;;;;;2.00;1.75;;;;;10.70;59.03;100886.91;2079411;28;47688;-59
2022/02/15 04:39:02;;;;;;;;;1.00;1.00;;;;;10.70;59.22;100883.38;2079277;28;47695;-58
2022/02/15 04:40:04;;;;;;;;;0.33;0.33;;;;;10.69;58.86;100881.63;2079477;28;45974;-57
2022/02/15 04:41:05;;;;;;;;;1.25;0.50;;;;;10.69;58.87;100884.28;2062574;28;48101;-59
2022/02/15 04:42:05;;;;;;;;;6.67;2.33;;;;;10.71;59.10;100887.78;2062741;28;47721;-58
2022/02/15 04:43:06;;;;;;;;;1.00;1.00;;;;;10.68;59.12;100886.06;2079647;28;47658;-58
2022/02/15 04:44:07;;;;;;;;;1.00;1.00;;;;;10.67;59.20;100891.38;2079070;28;47899;-58
2022/02/15 04:45:07;;;;;;;;;3.00;2.00;;;;;10.66;58.99;100885.19;2079316;28;47874;-59
2022/02/15 04:46:08;;;;;;;;;2.00;2.00;;;;;10.64;58.97;100889.66;2079638;28;48021;-58
2022/02/15 04:47:09;;;;;;;;;2.00;2.00;;;;;10.64;59.13;100894.97;2079598;28;47632;-59